sensor_id;sensor_type;location;lat;lon;timestamp;pressure;altitude;pressure_sealevel;temperature;humidity
60345;BME280;46188;52.324;8.032;2023-04-09T00:01:37;101526.38;;;6.56;100.00
60345;BME280;46188;52.324;8.032;2023-04-09T00:04:02;101531.25;;;6.49;100.00
60345;BME280;46188;52.324;8.032;2023-04-09T00:06:27;101526.38;;;6.37;100.00
60345;BME280;46188;52.324;8.032;2023-04-09T00:08:53;101531.88;;;6.23;100.00
60345;BME280;46188;52.324;8.032;2023-04-09T00:11:18;101532.38;;;6.15;100.00
60345;BME280;46188;52.324;8.032;2023-04-09T00:13:43;101527.47;;;6.03;100.00
60345;BME280;46188;52.324;8.032;2023-04-09T00:16:08;101527.94;;;5.96;100.00
60345;BME280;46188;52.324;8.032;2023-04-09T00:18:34;101529.31;;;5.87;100.00
60345;BME280;46188;52.324;8.032;2023-04-09T00:20:59;101526.44;;;5.81;100.00
60345;BME280;46188;52.324;8.032;2023-04-09T00:23:24;101523.34;;;5.72;100.00
60345;BME280;46188;52.324;8.032;2023-04-09T00:25:50;101517.91;;;5.67;100.00
60345;BME280;46188;52.324;8.032;2023-04-09T00:28:15;101521.13;;;5.62;100.00
60345;BME280;46188;52.324;8.032;2023-04-09T00:30:40;101511.34;;;5.58;100.00
60345;BME280;46188;52.324;8.032;2023-04-09T00:33:06;101514.41;;;5.49;100.00
60345;BME280;46188;52.324;8.032;2023-04-09T00:35:31;101516.66;;;5.41;100.00
60345;BME280;46188;52.324;8.032;2023-04-09T00:37:56;101512.91;;;5.36;100.00
60345;BME280;46188;52.324;8.032;2023-04-09T00:40:21;101517.88;;;5.30;100.00
60345;BME280;46188;52.324;8.032;2023-04-09T00:42:47;101518.59;;;5.27;100.00
60345;BME280;46188;52.324;8.032;2023-04-09T00:45:12;101515.00;;;5.25;100.00
60345;BME280;46188;52.324;8.032;2023-04-09T00:47:37;101519.47;;;5.28;100.00
60345;BME280;46188;52.324;8.032;2023-04-09T00:50:03;101517.69;;;5.27;100.00
60345;BME280;46188;52.324;8.032;2023-04-09T00:52:28;101516.66;;;5.23;100.00
60345;BME280;46188;52.324;8.032;2023-04-09T00:54:55;101515.75;;;5.23;100.00
60345;BME280;46188;52.324;8.032;2023-04-09T00:57:20;101516.28;;;5.15;100.00
60345;BME280;46188;52.324;8.032;2023-04-09T00:59:46;101519.53;;;5.11;100.00
60345;BME280;46188;52.324;8.032;2023-04-09T01:02:11;101528.22;;;5.10;100.00
60345;BME280;46188;52.324;8.032;2023-04-09T01:04:37;101519.34;;;5.07;100.00
60345;BME280;46188;52.324;8.032;2023-04-09T01:07:12;101517.88;;;4.95;100.00
60345;BME280;46188;52.324;8.032;2023-04-09T01:09:47;101511.69;;;4.93;100.00
60345;BME280;46188;52.324;8.032;2023-04-09T01:12:35;101514.06;;;4.89;100.00
60345;BME280;46188;52.324;8.032;2023-04-09T01:15:10;101518.81;;;4.79;100.00
60345;BME280;46188;52.324;8.032;2023-04-09T01:20:33;101508.97;;;4.74;100.00
60345;BME280;46188;52.324;8.032;2023-04-09T01:23:27;101509.59;;;4.70;100.00
60345;BME280;46188;52.324;8.032;2023-04-09T01:26:02;101512.81;;;4.64;100.00
60345;BME280;46188;52.324;8.032;2023-04-09T01:28:36;101513.25;;;4.55;100.00
60345;BME280;46188;52.324;8.032;2023-04-09T01:31:11;101512.31;;;4.55;100.00
60345;BME280;46188;52.324;8.032;2023-04-09T01:33:38;101506.38;;;4.57;100.00
60345;BME280;46188;52.324;8.032;2023-04-09T01:36:05;101511.59;;;4.57;100.00
60345;BME280;46188;52.324;8.032;2023-04-09T01:38:32;101518.28;;;4.52;100.00
60345;BME280;46188;52.324;8.032;2023-04-09T01:40:59;101518.84;;;4.47;100.00
60345;BME280;46188;52.324;8.032;2023-04-09T01:43:26;101512.59;;;4.43;100.00
60345;BME280;46188;52.324;8.032;2023-04-09T01:45:52;101514.22;;;4.41;100.00
60345;BME280;46188;52.324;8.032;2023-04-09T01:48:19;101510.56;;;4.37;100.00
60345;BME280;46188;52.324;8.032;2023-04-09T01:50:44;101505.16;;;4.34;100.00
60345;BME280;46188;52.324;8.032;2023-04-09T01:53:10;101513.00;;;4.34;100.00
60345;BME280;46188;52.324;8.032;2023-04-09T01:55:36;101510.06;;;4.28;100.00
60345;BME280;46188;52.324;8.032;2023-04-09T01:58:01;101514.94;;;4.22;100.00
60345;BME280;46188;52.324;8.032;2023-04-09T02:00:34;101516.31;;;4.15;100.00
60345;BME280;46188;52.324;8.032;2023-04-09T02:03:15;101518.03;;;4.15;100.00
60345;BME280;46188;52.324;8.032;2023-04-09T02:05:55;101517.06;;;4.13;100.00
60345;BME280;46188;52.324;8.032;2023-04-09T02:08:22;101511.69;;;4.10;100.00
60345;BME280;46188;52.324;8.032;2023-04-09T02:10:55;101509.88;;;4.09;100.00
60345;BME280;46188;52.324;8.032;2023-04-09T02:13:23;101508.09;;;4.07;100.00
60345;BME280;46188;52.324;8.032;2023-04-09T02:15:50;101512.34;;;4.05;100.00
60345;BME280;46188;52.324;8.032;2023-04-09T02:18:27;101507.75;;;4.01;100.00
60345;BME280;46188;52.324;8.032;2023-04-09T02:20:53;101502.28;;;3.97;100.00
60345;BME280;46188;52.324;8.032;2023-04-09T02:23:19;101503.84;;;3.93;100.00
60345;BME280;46188;52.324;8.032;2023-04-09T02:25:44;101501.22;;;3.93;100.00
60345;BME280;46188;52.324;8.032;2023-04-09T02:28:10;101501.06;;;3.90;100.00
60345;BME280;46188;52.324;8.032;2023-04-09T02:30:35;101495.66;;;3.87;100.00
60345;BME280;46188;52.324;8.032;2023-04-09T02:33:00;101495.50;;;3.84;100.00
60345;BME280;46188;52.324;8.032;2023-04-09T02:35:26;101500.50;;;3.79;100.00
60345;BME280;46188;52.324;8.032;2023-04-09T02:37:51;101506.41;;;3.77;100.00
60345;BME280;46188;52.324;8.032;2023-04-09T02:40:16;101500.31;;;3.76;100.00
60345;BME280;46188;52.324;8.032;2023-04-09T02:42:41;101494.28;;;3.77;100.00
60345;BME280;46188;52.324;8.032;2023-04-09T02:45:07;101503.00;;;3.78;100.00
60345;BME280;46188;52.324;8.032;2023-04-09T02:47:32;101500.16;;;3.73;100.00
60345;BME280;46188;52.324;8.032;2023-04-09T02:49:58;101491.44;;;3.73;100.00
60345;BME280;46188;52.324;8.032;2023-04-09T02:52:23;101495.00;;;3.75;100.00
60345;BME280;46188;52.324;8.032;2023-04-09T02:54:50;101488.81;;;3.73;100.00
60345;BME280;46188;52.324;8.032;2023-04-09T02:57:15;101484.97;;;3.66;100.00
60345;BME280;46188;52.324;8.032;2023-04-09T02:59:40;101490.91;;;3.63;100.00
60345;BME280;46188;52.324;8.032;2023-04-09T03:02:06;101481.47;;;3.65;100.00
60345;BME280;46188;52.324;8.032;2023-04-09T03:04:31;101478.69;;;3.62;100.00
60345;BME280;46188;52.324;8.032;2023-04-09T03:06:56;101485.78;;;3.65;100.00
60345;BME280;46188;52.324;8.032;2023-04-09T03:09:21;101483.88;;;3.62;100.00
60345;BME280;46188;52.324;8.032;2023-04-09T03:11:47;101481.59;;;3.52;100.00
60345;BME280;46188;52.324;8.032;2023-04-09T03:14:12;101477.75;;;3.45;100.00
60345;BME280;46188;52.324;8.032;2023-04-09T03:16:37;101474.44;;;3.48;100.00
60345;BME280;46188;52.324;8.032;2023-04-09T03:19:02;101478.56;;;3.44;100.00
60345;BME280;46188;52.324;8.032;2023-04-09T03:21:28;101477.16;;;3.35;100.00
60345;BME280;46188;52.324;8.032;2023-04-09T03:23:53;101470.94;;;3.32;100.00
60345;BME280;46188;52.324;8.032;2023-04-09T03:26:18;101469.34;;;3.35;100.00
60345;BME280;46188;52.324;8.032;2023-04-09T03:28:43;101464.94;;;3.33;100.00
60345;BME280;46188;52.324;8.032;2023-04-09T03:31:09;101465.81;;;3.34;100.00
60345;BME280;46188;52.324;8.032;2023-04-09T03:33:34;101464.94;;;3.33;100.00
60345;BME280;46188;52.324;8.032;2023-04-09T03:35:59;101458.00;;;3.34;100.00
60345;BME280;46188;52.324;8.032;2023-04-09T03:38:25;101464.47;;;3.26;100.00
60345;BME280;46188;52.324;8.032;2023-04-09T03:40:50;101463.34;;;3.21;100.00
60345;BME280;46188;52.324;8.032;2023-04-09T03:43:15;101458.94;;;3.20;100.00
60345;BME280;46188;52.324;8.032;2023-04-09T03:45:40;101456.06;;;3.15;100.00
60345;BME280;46188;52.324;8.032;2023-04-09T03:48:06;101449.81;;;3.11;100.00
60345;BME280;46188;52.324;8.032;2023-04-09T03:50:36;101452.13;;;3.07;100.00
60345;BME280;46188;52.324;8.032;2023-04-09T03:53:02;101450.00;;;3.00;100.00
60345;BME280;46188;52.324;8.032;2023-04-09T03:55:27;101452.44;;;2.97;100.00
60345;BME280;46188;52.324;8.032;2023-04-09T03:57:52;101455.75;;;2.94;100.00
60345;BME280;46188;52.324;8.032;2023-04-09T04:00:17;101453.88;;;2.91;100.00
60345;BME280;46188;52.324;8.032;2023-04-09T04:02:43;101446.22;;;2.94;100.00
60345;BME280;46188;52.324;8.032;2023-04-09T04:05:08;101454.13;;;2.96;100.00
60345;BME280;46188;52.324;8.032;2023-04-09T04:07:33;101453.41;;;2.99;100.00
60345;BME280;46188;52.324;8.032;2023-04-09T04:09:59;101457.63;;;2.97;100.00
60345;BME280;46188;52.324;8.032;2023-04-09T04:12:24;101456.63;;;2.94;100.00
60345;BME280;46188;52.324;8.032;2023-04-09T04:14:49;101461.84;;;2.94;100.00
60345;BME280;46188;52.324;8.032;2023-04-09T04:17:15;101456.38;;;2.90;100.00
60345;BME280;46188;52.324;8.032;2023-04-09T04:19:40;101459.69;;;2.87;100.00
60345;BME280;46188;52.324;8.032;2023-04-09T04:22:05;101452.69;;;2.86;100.00
60345;BME280;46188;52.324;8.032;2023-04-09T04:24:30;101459.00;;;2.90;100.00
60345;BME280;46188;52.324;8.032;2023-04-09T04:26:55;101461.69;;;2.91;100.00
60345;BME280;46188;52.324;8.032;2023-04-09T04:29:21;101460.69;;;2.89;100.00
60345;BME280;46188;52.324;8.032;2023-04-09T04:31:46;101460.78;;;2.91;100.00
60345;BME280;46188;52.324;8.032;2023-04-09T04:34:11;101459.97;;;2.92;100.00
60345;BME280;46188;52.324;8.032;2023-04-09T04:36:36;101460.69;;;2.89;100.00
60345;BME280;46188;52.324;8.032;2023-04-09T04:39:02;101467.31;;;2.84;100.00
60345;BME280;46188;52.324;8.032;2023-04-09T04:41:27;101465.19;;;2.77;100.00
60345;BME280;46188;52.324;8.032;2023-04-09T04:43:53;101468.31;;;2.71;100.00
60345;BME280;46188;52.324;8.032;2023-04-09T04:46:18;101468.16;;;2.68;100.00
60345;BME280;46188;52.324;8.032;2023-04-09T04:48:44;101462.75;;;2.65;100.00
60345;BME280;46188;52.324;8.032;2023-04-09T04:51:09;101475.59;;;2.62;100.00
60345;BME280;46188;52.324;8.032;2023-04-09T04:53:35;101465.28;;;2.64;100.00
60345;BME280;46188;52.324;8.032;2023-04-09T04:56:00;101465.47;;;2.67;100.00
60345;BME280;46188;52.324;8.032;2023-04-09T04:58:25;101467.59;;;2.59;100.00
60345;BME280;46188;52.324;8.032;2023-04-09T05:00:50;101466.34;;;2.52;100.00
60345;BME280;46188;52.324;8.032;2023-04-09T05:03:16;101467.78;;;2.47;100.00
60345;BME280;46188;52.324;8.032;2023-04-09T05:05:42;101467.13;;;2.51;100.00
60345;BME280;46188;52.324;8.032;2023-04-09T05:08:07;101462.03;;;2.53;100.00
60345;BME280;46188;52.324;8.032;2023-04-09T05:10:32;101460.06;;;2.49;100.00
60345;BME280;46188;52.324;8.032;2023-04-09T05:12:57;101464.19;;;2.45;100.00
60345;BME280;46188;52.324;8.032;2023-04-09T05:15:23;101462.28;;;2.43;100.00
60345;BME280;46188;52.324;8.032;2023-04-09T05:17:48;101453.78;;;2.45;100.00
60345;BME280;46188;52.324;8.032;2023-04-09T05:20:14;101454.03;;;2.50;100.00
60345;BME280;46188;52.324;8.032;2023-04-09T05:22:39;101452.34;;;2.50;100.00
60345;BME280;46188;52.324;8.032;2023-04-09T05:25:05;101460.34;;;2.53;100.00
60345;BME280;46188;52.324;8.032;2023-04-09T05:27:31;101458.81;;;2.57;100.00
60345;BME280;46188;52.324;8.032;2023-04-09T05:29:56;101467.50;;;2.57;100.00
60345;BME280;46188;52.324;8.032;2023-04-09T05:32:21;101464.53;;;2.51;100.00
60345;BME280;46188;52.324;8.032;2023-04-09T05:34:47;101465.69;;;2.56;100.00
60345;BME280;46188;52.324;8.032;2023-04-09T05:37:12;101472.63;;;2.56;100.00
60345;BME280;46188;52.324;8.032;2023-04-09T05:39:38;101469.59;;;2.63;100.00
60345;BME280;46188;52.324;8.032;2023-04-09T05:42:03;101467.22;;;2.68;100.00
60345;BME280;46188;52.324;8.032;2023-04-09T05:44:28;101468.50;;;2.74;100.00
60345;BME280;46188;52.324;8.032;2023-04-09T05:46:54;101470.47;;;2.79;100.00
60345;BME280;46188;52.324;8.032;2023-04-09T05:49:19;101473.38;;;2.83;100.00
60345;BME280;46188;52.324;8.032;2023-04-09T05:51:44;101479.81;;;2.90;100.00
60345;BME280;46188;52.324;8.032;2023-04-09T05:54:10;101477.56;;;2.96;100.00
60345;BME280;46188;52.324;8.032;2023-04-09T05:56:35;101473.59;;;3.03;100.00
60345;BME280;46188;52.324;8.032;2023-04-09T05:59:01;101477.63;;;3.12;100.00
60345;BME280;46188;52.324;8.032;2023-04-09T06:01:26;101472.88;;;3.20;100.00
60345;BME280;46188;52.324;8.032;2023-04-09T06:03:51;101478.53;;;3.28;100.00
60345;BME280;46188;52.324;8.032;2023-04-09T06:06:17;101470.31;;;3.37;100.00
60345;BME280;46188;52.324;8.032;2023-04-09T06:08:42;101475.06;;;3.44;100.00
60345;BME280;46188;52.324;8.032;2023-04-09T06:11:09;101475.56;;;3.53;100.00
60345;BME280;46188;52.324;8.032;2023-04-09T06:13:34;101480.78;;;3.53;100.00
60345;BME280;46188;52.324;8.032;2023-04-09T06:16:02;101483.66;;;3.58;100.00
60345;BME280;46188;52.324;8.032;2023-04-09T06:18:28;101481.38;;;3.64;100.00
60345;BME280;46188;52.324;8.032;2023-04-09T06:21:03;101488.66;;;3.69;100.00
60345;BME280;46188;52.324;8.032;2023-04-09T06:23:31;101487.09;;;3.73;100.00
60345;BME280;46188;52.324;8.032;2023-04-09T06:25:56;101484.75;;;3.78;100.00
60345;BME280;46188;52.324;8.032;2023-04-09T06:28:22;101485.91;;;3.83;100.00
60345;BME280;46188;52.324;8.032;2023-04-09T06:30:47;101492.88;;;3.84;100.00
60345;BME280;46188;52.324;8.032;2023-04-09T06:33:13;101496.81;;;3.92;100.00
60345;BME280;46188;52.324;8.032;2023-04-09T06:35:38;101491.59;;;3.92;100.00
60345;BME280;46188;52.324;8.032;2023-04-09T06:38:03;101498.78;;;3.96;100.00
60345;BME280;46188;52.324;8.032;2023-04-09T06:40:30;101497.91;;;3.96;100.00
60345;BME280;46188;52.324;8.032;2023-04-09T06:42:55;101498.97;;;3.99;100.00
60345;BME280;46188;52.324;8.032;2023-04-09T06:45:20;101506.03;;;4.02;100.00
60345;BME280;46188;52.324;8.032;2023-04-09T06:47:45;101501.97;;;4.07;100.00
60345;BME280;46188;52.324;8.032;2023-04-09T06:50:11;101506.47;;;4.10;100.00
60345;BME280;46188;52.324;8.032;2023-04-09T06:52:36;101504.84;;;4.12;100.00
60345;BME280;46188;52.324;8.032;2023-04-09T06:55:01;101500.59;;;4.14;100.00
60345;BME280;46188;52.324;8.032;2023-04-09T06:57:26;101512.91;;;4.16;100.00
60345;BME280;46188;52.324;8.032;2023-04-09T06:59:52;101511.34;;;4.20;100.00
60345;BME280;46188;52.324;8.032;2023-04-09T07:02:17;101509.72;;;4.22;100.00
60345;BME280;46188;52.324;8.032;2023-04-09T07:04:42;101511.78;;;4.28;100.00
60345;BME280;46188;52.324;8.032;2023-04-09T07:07:07;101507.63;;;4.31;100.00
60345;BME280;46188;52.324;8.032;2023-04-09T07:09:33;101517.16;;;4.31;100.00
60345;BME280;46188;52.324;8.032;2023-04-09T07:11:58;101519.88;;;4.32;100.00
60345;BME280;46188;52.324;8.032;2023-04-09T07:14:23;101512.84;;;4.31;100.00
60345;BME280;46188;52.324;8.032;2023-04-09T07:16:48;101517.16;;;4.31;100.00
60345;BME280;46188;52.324;8.032;2023-04-09T07:19:14;101515.53;;;4.33;100.00
60345;BME280;46188;52.324;8.032;2023-04-09T07:21:39;101519.59;;;4.44;100.00
60345;BME280;46188;52.324;8.032;2023-04-09T07:24:05;101524.25;;;4.50;100.00
60345;BME280;46188;52.324;8.032;2023-04-09T07:26:30;101516.66;;;4.54;100.00
60345;BME280;46188;52.324;8.032;2023-04-09T07:28:57;101517.88;;;4.61;100.00
60345;BME280;46188;52.324;8.032;2023-04-09T07:31:23;101516.38;;;4.66;100.00
60345;BME280;46188;52.324;8.032;2023-04-09T07:33:48;101517.44;;;4.70;100.00
60345;BME280;46188;52.324;8.032;2023-04-09T07:36:13;101523.00;;;4.76;100.00
60345;BME280;46188;52.324;8.032;2023-04-09T07:38:39;101521.03;;;4.88;100.00
60345;BME280;46188;52.324;8.032;2023-04-09T07:41:05;101526.63;;;4.96;100.00
60345;BME280;46188;52.324;8.032;2023-04-09T07:43:30;101526.78;;;4.99;100.00
60345;BME280;46188;52.324;8.032;2023-04-09T07:45:56;101527.09;;;5.05;100.00
60345;BME280;46188;52.324;8.032;2023-04-09T07:48:21;101527.69;;;5.17;100.00
60345;BME280;46188;52.324;8.032;2023-04-09T07:50:48;101517.94;;;5.31;100.00
60345;BME280;46188;52.324;8.032;2023-04-09T07:53:13;101528.47;;;5.33;100.00
60345;BME280;46188;52.324;8.032;2023-04-09T07:55:39;101524.94;;;5.32;100.00
60345;BME280;46188;52.324;8.032;2023-04-09T07:58:04;101525.31;;;5.40;100.00
60345;BME280;46188;52.324;8.032;2023-04-09T08:00:30;101525.19;;;5.55;100.00
60345;BME280;46188;52.324;8.032;2023-04-09T08:02:55;101520.19;;;5.79;100.00
60345;BME280;46188;52.324;8.032;2023-04-09T08:05:21;101527.88;;;6.12;100.00
60345;BME280;46188;52.324;8.032;2023-04-09T08:07:47;101521.00;;;6.34;100.00
60345;BME280;46188;52.324;8.032;2023-04-09T08:10:12;101520.84;;;6.50;100.00
60345;BME280;46188;52.324;8.032;2023-04-09T08:12:39;101522.38;;;6.64;100.00
60345;BME280;46188;52.324;8.032;2023-04-09T08:15:05;101523.16;;;6.83;100.00
60345;BME280;46188;52.324;8.032;2023-04-09T08:17:33;101531.72;;;7.00;100.00
60345;BME280;46188;52.324;8.032;2023-04-09T08:20:00;101528.19;;;7.19;100.00
60345;BME280;46188;52.324;8.032;2023-04-09T08:22:26;101524.56;;;7.38;100.00
60345;BME280;46188;52.324;8.032;2023-04-09T08:24:51;101523.91;;;7.65;100.00
60345;BME280;46188;52.324;8.032;2023-04-09T08:27:17;101518.72;;;7.89;100.00
60345;BME280;46188;52.324;8.032;2023-04-09T08:29:43;101516.78;;;8.07;100.00
60345;BME280;46188;52.324;8.032;2023-04-09T08:32:08;101519.00;;;8.19;100.00
60345;BME280;46188;52.324;8.032;2023-04-09T08:34:33;101525.88;;;8.40;100.00
60345;BME280;46188;52.324;8.032;2023-04-09T08:36:59;101522.28;;;8.60;100.00
60345;BME280;46188;52.324;8.032;2023-04-09T08:39:24;101515.16;;;8.82;100.00
60345;BME280;46188;52.324;8.032;2023-04-09T08:41:50;101517.94;;;9.12;100.00
60345;BME280;46188;52.324;8.032;2023-04-09T08:44:17;101520.94;;;9.23;100.00
60345;BME280;46188;52.324;8.032;2023-04-09T08:46:42;101522.34;;;9.39;100.00
60345;BME280;46188;52.324;8.032;2023-04-09T08:49:08;101524.63;;;9.55;100.00
60345;BME280;46188;52.324;8.032;2023-04-09T08:51:35;101522.66;;;9.77;100.00
60345;BME280;46188;52.324;8.032;2023-04-09T08:54:01;101517.88;;;9.92;100.00
60345;BME280;46188;52.324;8.032;2023-04-09T08:56:27;101521.66;;;10.02;100.00
60345;BME280;46188;52.324;8.032;2023-04-09T08:58:53;101519.19;;;10.07;100.00
60345;BME280;46188;52.324;8.032;2023-04-09T09:01:24;101514.34;;;10.22;100.00
60345;BME280;46188;52.324;8.032;2023-04-09T09:03:55;101511.25;;;10.36;100.00
60345;BME280;46188;52.324;8.032;2023-04-09T09:06:22;101508.19;;;10.52;100.00
60345;BME280;46188;52.324;8.032;2023-04-09T09:09:07;101506.75;;;10.63;100.00
60345;BME280;46188;52.324;8.032;2023-04-09T09:11:39;101501.66;;;10.69;100.00
60345;BME280;46188;52.324;8.032;2023-04-09T09:14:07;101502.53;;;10.70;100.00
60345;BME280;46188;52.324;8.032;2023-04-09T09:16:34;101507.38;;;10.86;100.00
60345;BME280;46188;52.324;8.032;2023-04-09T09:19:01;101497.41;;;11.10;100.00
60345;BME280;46188;52.324;8.032;2023-04-09T09:21:27;101502.78;;;11.13;100.00
60345;BME280;46188;52.324;8.032;2023-04-09T09:23:53;101499.28;;;11.14;100.00
60345;BME280;46188;52.324;8.032;2023-04-09T09:26:23;101498.66;;;11.24;100.00
60345;BME280;46188;52.324;8.032;2023-04-09T09:28:50;101498.63;;;11.22;100.00
60345;BME280;46188;52.324;8.032;2023-04-09T09:31:18;101493.47;;;11.29;100.00
60345;BME280;46188;52.324;8.032;2023-04-09T09:33:44;101491.34;;;11.49;100.00
60345;BME280;46188;52.324;8.032;2023-04-09T09:36:10;101488.78;;;11.53;99.63
60345;BME280;46188;52.324;8.032;2023-04-09T09:38:54;101498.78;;;11.65;98.42
60345;BME280;46188;52.324;8.032;2023-04-09T09:41:20;101491.22;;;11.82;97.22
60345;BME280;46188;52.324;8.032;2023-04-09T09:43:46;101497.88;;;12.04;96.24
60345;BME280;46188;52.324;8.032;2023-04-09T09:46:11;101494.81;;;12.25;94.79
60345;BME280;46188;52.324;8.032;2023-04-09T09:48:37;101489.69;;;12.33;93.66
60345;BME280;46188;52.324;8.032;2023-04-09T09:51:08;101492.38;;;12.36;91.12
60345;BME280;46188;52.324;8.032;2023-04-09T09:53:35;101489.56;;;12.27;89.71
60345;BME280;46188;52.324;8.032;2023-04-09T09:56:03;101485.31;;;12.35;89.31
60345;BME280;46188;52.324;8.032;2023-04-09T09:58:52;101485.81;;;12.61;88.21
60345;BME280;46188;52.324;8.032;2023-04-09T10:01:18;101484.19;;;12.68;85.36
60345;BME280;46188;52.324;8.032;2023-04-09T10:03:45;101486.78;;;12.65;83.37
60345;BME280;46188;52.324;8.032;2023-04-09T10:06:14;101478.72;;;12.59;80.72
60345;BME280;46188;52.324;8.032;2023-04-09T10:08:41;101483.25;;;12.66;79.56
60345;BME280;46188;52.324;8.032;2023-04-09T10:11:08;101478.22;;;12.80;79.59
60345;BME280;46188;52.324;8.032;2023-04-09T10:13:49;101481.38;;;13.10;79.88
60345;BME280;46188;52.324;8.032;2023-04-09T10:16:16;101478.97;;;13.24;79.31
60345;BME280;46188;52.324;8.032;2023-04-09T10:18:43;101467.78;;;13.39;79.21
60345;BME280;46188;52.324;8.032;2023-04-09T10:21:22;101471.38;;;13.44;77.29
60345;BME280;46188;52.324;8.032;2023-04-09T10:23:49;101464.47;;;13.54;76.88
60345;BME280;46188;52.324;8.032;2023-04-09T10:26:16;101467.97;;;13.53;75.82
60345;BME280;46188;52.324;8.032;2023-04-09T10:28:42;101460.31;;;13.73;75.67
60345;BME280;46188;52.324;8.032;2023-04-09T10:31:07;101457.84;;;13.87;74.42
60345;BME280;46188;52.324;8.032;2023-04-09T10:33:35;101455.44;;;14.06;74.46
60345;BME280;46188;52.324;8.032;2023-04-09T10:36:11;101451.06;;;14.09;72.14
60345;BME280;46188;52.324;8.032;2023-04-09T10:38:38;101455.44;;;14.06;71.84
60345;BME280;46188;52.324;8.032;2023-04-09T10:41:20;101445.56;;;13.92;69.96
60345;BME280;46188;52.324;8.032;2023-04-09T10:43:47;101447.97;;;13.74;69.13
60345;BME280;46188;52.324;8.032;2023-04-09T10:46:27;101442.56;;;13.68;67.85
60345;BME280;46188;52.324;8.032;2023-04-09T10:49:10;101436.50;;;13.76;68.75
60345;BME280;46188;52.324;8.032;2023-04-09T10:51:37;101433.16;;;13.91;67.70
60345;BME280;46188;52.324;8.032;2023-04-09T10:54:04;101432.38;;;14.00;66.41
60345;BME280;46188;52.324;8.032;2023-04-09T10:56:30;101430.69;;;14.07;66.52
60345;BME280;46188;52.324;8.032;2023-04-09T10:58:55;101426.25;;;14.04;66.21
60345;BME280;46188;52.324;8.032;2023-04-09T11:01:21;101433.41;;;14.13;65.41
60345;BME280;46188;52.324;8.032;2023-04-09T11:04:07;101428.78;;;13.95;62.72
60345;BME280;46188;52.324;8.032;2023-04-09T11:06:39;101419.09;;;13.95;62.96
60345;BME280;46188;52.324;8.032;2023-04-09T11:09:04;101421.91;;;14.11;62.86
60345;BME280;46188;52.324;8.032;2023-04-09T11:11:30;101414.91;;;14.16;62.55
60345;BME280;46188;52.324;8.032;2023-04-09T11:13:58;101411.44;;;14.20;61.05
60345;BME280;46188;52.324;8.032;2023-04-09T11:16:28;101410.63;;;14.27;61.59
60345;BME280;46188;52.324;8.032;2023-04-09T11:18:53;101409.03;;;14.48;61.91
60345;BME280;46188;52.324;8.032;2023-04-09T11:21:20;101403.00;;;14.61;62.03
60345;BME280;46188;52.324;8.032;2023-04-09T11:23:52;101405.72;;;14.67;61.14
60345;BME280;46188;52.324;8.032;2023-04-09T11:26:22;101396.84;;;14.62;60.51
60345;BME280;46188;52.324;8.032;2023-04-09T11:28:47;101403.06;;;14.67;61.37
60345;BME280;46188;52.324;8.032;2023-04-09T11:31:13;101400.44;;;14.69;60.69
60345;BME280;46188;52.324;8.032;2023-04-09T11:33:38;101402.25;;;14.74;61.04
60345;BME280;46188;52.324;8.032;2023-04-09T11:36:04;101402.00;;;14.53;61.59
60345;BME280;46188;52.324;8.032;2023-04-09T11:38:30;101393.09;;;14.43;61.32
60345;BME280;46188;52.324;8.032;2023-04-09T11:40:56;101398.41;;;14.43;61.55
60345;BME280;46188;52.324;8.032;2023-04-09T11:43:23;101395.16;;;14.70;61.15
60345;BME280;46188;52.324;8.032;2023-04-09T11:45:48;101392.66;;;14.92;60.60
60345;BME280;46188;52.324;8.032;2023-04-09T11:48:15;101395.41;;;15.06;60.00
60345;BME280;46188;52.324;8.032;2023-04-09T11:50:42;101395.41;;;15.06;59.77
60345;BME280;46188;52.324;8.032;2023-04-09T11:53:21;101395.53;;;15.18;59.88
60345;BME280;46188;52.324;8.032;2023-04-09T11:55:49;101392.06;;;15.31;59.53
60345;BME280;46188;52.324;8.032;2023-04-09T11:58:15;101384.16;;;15.45;59.83
60345;BME280;46188;52.324;8.032;2023-04-09T12:00:40;101390.34;;;15.40;59.59
60345;BME280;46188;52.324;8.032;2023-04-09T12:03:05;101384.97;;;15.34;59.60
60345;BME280;46188;52.324;8.032;2023-04-09T12:05:33;101382.16;;;15.07;59.74
60345;BME280;46188;52.324;8.032;2023-04-09T12:08:04;101381.03;;;14.76;60.04
60345;BME280;46188;52.324;8.032;2023-04-09T12:10:32;101379.34;;;14.87;59.48
60345;BME280;46188;52.324;8.032;2023-04-09T12:13:06;101396.34;;;15.12;58.72
60345;BME280;46188;52.324;8.032;2023-04-09T12:15:34;101383.72;;;14.81;58.26
60345;BME280;46188;52.324;8.032;2023-04-09T12:18:01;101380.06;;;14.63;59.00
60345;BME280;46188;52.324;8.032;2023-04-09T12:20:31;101376.38;;;14.53;59.81
60345;BME280;46188;52.324;8.032;2023-04-09T12:22:58;101384.28;;;14.47;59.62
60345;BME280;46188;52.324;8.032;2023-04-09T12:25:24;101387.25;;;14.76;59.82
60345;BME280;46188;52.324;8.032;2023-04-09T12:27:50;101378.56;;;14.96;60.13
60345;BME280;46188;52.324;8.032;2023-04-09T12:30:15;101382.94;;;14.95;59.87
60345;BME280;46188;52.324;8.032;2023-04-09T12:32:40;101388.16;;;14.80;59.64
60345;BME280;46188;52.324;8.032;2023-04-09T12:35:09;101376.50;;;14.64;60.02
60345;BME280;46188;52.324;8.032;2023-04-09T12:37:34;101373.81;;;14.61;60.25
60345;BME280;46188;52.324;8.032;2023-04-09T12:39:59;101382.53;;;14.49;60.24
60345;BME280;46188;52.324;8.032;2023-04-09T12:42:24;101376.28;;;14.43;60.41
60345;BME280;46188;52.324;8.032;2023-04-09T12:44:50;101376.28;;;14.43;60.87
60345;BME280;46188;52.324;8.032;2023-04-09T12:47:15;101380.66;;;14.39;61.01
60345;BME280;46188;52.324;8.032;2023-04-09T12:49:42;101379.84;;;14.48;61.00
60345;BME280;46188;52.324;8.032;2023-04-09T12:52:10;101371.03;;;14.49;60.83